Time;durP1;ratioP1;P1;durP2;ratioP2;P2;SDS_P1;SDS_P2;PMS_P1;PMS_P2;Temp;Humidity;BMP_temperature;BMP_pressure;BME280_temperature;BME280_humidity;BME280_pressure;Samples;Min_cycle;Max_cycle;Signal;HPM_P1;HPM_P2
2024/04/13 00:01:03;;;;;;;;;;;;;;;18.08;78.43;102179.50;5408382;25;99633;-74
2024/04/13 00:03:31;;;;;;;4.63;2.90;;;;;;;17.87;79.76;102173.28;5407975;25;94828;-73
2024/04/13 00:05:59;;;;;;;5.53;3.60;;;;;;;17.99;79.24;102177.22;5405070;25;94910;-72
2024/04/13 00:08:25;;;;;;;9.60;3.35;;;;;;;17.96;79.26;102184.53;5406748;25;95810;-74
2024/04/13 00:10:53;;;;;;;4.63;3.17;;;;;;;17.85;80.08;102185.00;5407563;25;96220;-73
2024/04/13 00:13:19;;;;;;;4.68;3.22;;;;;;;18.26;78.45;102185.84;5398354;25;94695;-73
2024/04/13 00:15:56;;;;;;;;;;;;;;;17.96;79.15;102181.84;5408222;25;95619;-73
2024/04/13 00:18:21;;;;;;;7.85;3.60;;;;;;;18.08;78.91;102170.59;5398242;26;96852;-74
2024/04/13 00:20:52;;;;;;;;;;;;;;;17.99;79.38;102171.00;5407466;25;96046;-73
2024/04/13 00:23:17;;;;;;;4.00;3.03;;;;;;;17.90;79.70;102170.50;5406957;25;94649;-73
2024/04/13 00:25:51;;;;;;;;;;;;;;;17.83;80.02;102165.47;5407366;25;94854;-74
2024/04/13 00:28:16;;;;;;;5.32;3.33;;;;;;;17.99;79.38;102165.66;5405043;26;97577;-73
2024/04/13 00:30:45;;;;;;;6.35;3.17;;;;;;;18.03;79.47;102161.94;5406237;25;99538;-72
2024/04/13 00:33:12;;;;;;;6.25;3.60;;;;;;;18.17;78.88;102167.53;5406751;25;94829;-71
2024/04/13 00:35:40;;;;;;;8.10;3.95;;;;;;;18.26;78.21;102169.78;5405306;25;94980;-73
2024/04/13 00:38:08;;;;;;;6.50;3.85;;;;;;;18.21;78.32;102161.09;5404082;25;98955;-73
2024/04/13 00:40:36;;;;;;;5.93;3.80;;;;;;;18.12;78.30;102161.50;5406748;25;97706;-73
2024/04/13 00:43:05;;;;;;;7.40;3.85;;;;;;;17.73;80.62;102158.75;5406580;25;94697;-73
2024/04/13 00:45:42;;;;;;;6.40;4.10;;;;;;;18.08;79.51;102157.22;5407178;25;95015;-74
2024/04/13 00:48:09;;;;;;;5.25;3.67;;;;;;;18.08;79.26;102159.91;5404780;25;98149;-72
2024/04/13 00:50:37;;;;;;;8.02;3.90;;;;;;;18.26;78.31;102148.38;5409836;25;96941;-72
2024/04/13 00:53:03;;;;;;;7.05;3.83;;;;;;;18.08;78.78;102154.56;5410223;25;94747;-73
2024/04/13 00:55:34;;;;;;;9.43;4.13;;;;;;;18.18;78.88;102148.72;5406510;26;94926;-74
2024/04/13 00:58:00;;;;;;;12.55;4.03;;;;;;;18.41;77.75;102149.50;5405969;25;99719;-75
2024/04/13 01:00:28;;;;;;;;;;;;;;;18.30;78.54;102145.50;5406986;26;96165;-73
2024/04/13 01:02:54;;;;;;;4.32;3.42;;;;;;;18.15;79.17;102143.53;5406450;25;95201;-74
2024/04/13 01:05:21;;;;;;;;;;;;;;;18.25;78.54;102150.19;5407275;25;95000;-73
2024/04/13 01:07:47;;;;;;;7.75;3.83;;;;;;;18.31;78.24;102147.22;5405049;25;97010;-73
2024/04/13 01:10:16;;;;;;;8.75;3.63;;;;;;;18.52;76.56;102149.84;5406001;25;98435;-73
2024/04/13 01:12:46;;;;;;;6.30;4.15;;;;;;;18.77;76.10;102144.28;5405968;25;94752;-73
2024/04/13 01:15:14;;;;;;;5.63;3.33;;;;;;;18.59;76.74;102151.34;5406691;25;94846;-73
2024/04/13 01:17:41;;;;;;;8.60;4.20;;;;;;;18.59;76.03;102154.00;5405104;25;97734;-73
2024/04/13 01:20:10;;;;;;;4.25;3.83;;;;;;;18.36;77.27;102141.69;5408848;25;97667;-72
2024/04/13 01:22:41;;;;;;;8.68;3.97;;;;;;;18.29;77.80;102140.22;5409211;26;94756;-72
2024/04/13 01:25:13;;;;;;;7.07;3.88;;;;;;;18.28;78.22;102147.38;5409989;25;94732;-72
2024/04/13 01:27:39;;;;;;;10.05;3.92;;;;;;;18.27;78.23;102151.00;5408972;25;96821;-73
2024/04/13 01:30:11;;;;;;;5.40;4.28;;;;;;;18.39;77.61;102146.00;5410349;25;99732;-73
2024/04/13 01:32:37;;;;;;;9.95;4.20;;;;;;;18.45;77.37;102143.91;5410239;25;94715;-73
2024/04/13 01:35:09;;;;;;;;;;;;;;;18.51;76.32;102138.28;5409779;25;94891;-72
2024/04/13 01:37:36;;;;;;;9.02;3.85;;;;;;;17.96;79.81;102139.06;5407984;25;99929;-73
2024/04/13 01:40:04;;;;;;;8.05;3.13;;;;;;;17.80;80.08;102145.06;5412950;25;94801;-75
2024/04/13 01:42:32;;;;;;;6.07;4.32;;;;;;;18.13;79.07;102152.53;5409897;25;94716;-74
2024/04/13 01:45:01;;;;;;;7.22;3.80;;;;;;;18.27;78.46;102150.13;5409991;25;95038;-74
2024/04/13 01:47:26;;;;;;;7.70;4.65;;;;;;;18.05;79.21;102154.72;5408187;25;96916;-74
2024/04/13 01:49:54;;;;;;;;;;;;;;;18.06;79.26;102159.09;5410263;25;96743;-73
2024/04/13 01:52:20;;;;;;;9.57;4.40;;;;;;;18.33;77.98;102156.06;5415330;25;94751;-73
2024/04/13 01:54:48;;;;;;;;;;;;;;;18.25;78.45;102158.19;5411214;25;94963;-74
2024/04/13 01:57:14;;;;;;;7.90;4.55;;;;;;;18.24;78.21;102167.19;5406011;25;95788;-73
2024/04/13 01:59:45;;;;;;;;;;;;;;;18.32;78.03;102161.47;5409085;25;97511;-73
2024/04/13 02:02:11;;;;;;;6.18;4.13;;;;;;;18.19;78.64;102158.47;5408532;25;95303;-73
2024/04/13 02:04:39;;;;;;;6.57;4.35;;;;;;;18.32;77.95;102165.03;5409004;25;96762;-73
2024/04/13 02:07:05;;;;;;;7.38;4.35;;;;;;;18.39;77.12;102160.25;5406947;26;96909;-74
2024/04/13 02:09:33;;;;;;;8.05;4.43;;;;;;;18.39;76.76;102160.25;5420066;25;97302;-73
2024/04/13 02:11:59;;;;;;;5.65;4.00;;;;;;;18.21;77.98;102163.78;5409134;25;94766;-73
2024/04/13 02:14:26;;;;;;;;;;;;;;;18.08;78.33;102160.78;5409366;25;94926;-72
2024/04/13 02:16:55;;;;;;;6.30;4.72;;;;;;;17.90;79.48;102172.28;5407229;25;97147;-73
2024/04/13 02:19:24;;;;;;;6.97;4.55;;;;;;;17.76;80.66;102169.34;5408858;25;97634;-72
2024/04/13 02:21:49;;;;;;;6.68;4.70;;;;;;;17.98;79.91;102169.28;5410311;25;94701;-73
2024/04/13 02:24:17;;;;;;;;;;;;;;;18.09;78.95;102167.00;5410162;25;94848;-73
2024/04/13 02:26:43;;;;;;;8.32;5.10;;;;;;;18.16;78.46;102171.16;5407768;25;96020;-74
2024/04/13 02:29:10;;;;;;;;;;;;;;;18.08;78.83;102165.25;5407825;25;98281;-73
2024/04/13 02:31:36;;;;;;;12.18;5.63;;;;;;;17.89;79.64;102160.72;5409285;25;94730;-73
2024/04/13 02:34:06;;;;;;;;;;;;;;;18.06;79.22;102165.31;5409227;25;94924;-73
2024/04/13 02:36:32;;;;;;;10.63;5.50;;;;;;;18.02;79.32;102158.38;5408222;25;96642;-74
2024/04/13 02:39:01;;;;;;;;;;;;;;;17.79;80.56;102162.03;5408173;25;96911;-73
2024/04/13 02:41:27;;;;;;;7.18;5.03;;;;;;;17.98;79.71;102169.28;5408820;26;94806;-73
2024/04/13 02:43:55;;;;;;;;;;;;;;;18.16;78.40;102155.97;5409767;25;94909;-74
2024/04/13 02:46:22;;;;;;;6.90;5.53;;;;;;;18.09;78.60;102158.97;5407752;25;97420;-72
2024/04/13 02:48:50;;;;;;;11.45;5.40;;;;;;;17.91;79.52;102164.22;5406860;26;98610;-73
2024/04/13 02:51:18;;;;;;;10.27;4.97;;;;;;;17.73;80.87;102159.63;5415691;25;94927;-73
2024/04/13 02:53:47;;;;;;;7.53;5.05;;;;;;;17.55;82.02;102155.03;5408300;26;94915;-73
2024/04/13 02:56:13;;;;;;;8.35;5.25;;;;;;;17.44;82.19;102151.97;5407308;25;97095;-74
2024/04/13 02:58:40;;;;;;;;;;;;;;;17.46;82.58;102147.41;5408138;25;96874;-73
2024/04/13 03:01:07;;;;;;;9.63;5.63;;;;;;;17.35;83.69;102149.66;5408310;25;94909;-73
2024/04/13 03:03:35;;;;;;;9.73;4.97;;;;;;;17.38;83.19;102146.88;5409114;25;94991;-73
2024/04/13 03:06:02;;;;;;;9.68;5.82;;;;;;;17.24;83.83;102144.78;5407557;25;96900;-73
2024/04/13 03:08:33;;;;;;;9.95;5.90;;;;;;;17.48;82.87;102148.22;5399108;25;97362;-72
2024/04/13 03:11:00;;;;;;;11.63;5.00;;;;;;;17.58;82.19;102138.91;5409172;25;94732;-74
2024/04/13 03:13:29;;;;;;;7.95;5.20;;;;;;;17.73;81.75;102142.72;5408992;25;94684;-73
2024/04/13 03:15:58;;;;;;;8.13;5.35;;;;;;;17.72;81.02;102146.34;5406995;25;97341;-74
2024/04/13 03:18:27;;;;;;;8.85;5.22;;;;;;;17.61;81.90;102137.91;5406762;25;95905;-74
2024/04/13 03:20:53;;;;;;;8.15;5.57;;;;;;;17.34;83.23;102140.78;5408934;25;94738;-73
2024/04/13 03:23:21;;;;;;;;;;;;;;;17.04;85.33;102142.91;5409711;25;94765;-74
2024/04/13 03:25:49;;;;;;;8.23;5.68;;;;;;;17.29;84.15;102140.09;5408920;25;95967;-73
2024/04/13 03:28:17;;;;;;;9.98;5.63;;;;;;;17.49;82.58;102139.28;5407869;25;96101;-72
2024/04/13 03:30:42;;;;;;;10.07;5.50;;;;;;;17.48;82.61;102146.41;5407455;25;95279;-73
2024/04/13 03:33:10;;;;;;;;;;;;;;;17.68;82.34;102144.72;5410505;25;95001;-72
2024/04/13 03:35:36;;;;;;;8.23;5.55;;;;;;;17.64;81.70;102146.69;5407222;26;95444;-73
2024/04/13 03:38:04;;;;;;;;;;;;;;;17.51;82.91;102143.63;5407773;25;97300;-73
2024/04/13 03:40:34;;;;;;;9.60;5.82;;;;;;;17.27;83.49;102146.44;5407217;25;94759;-72
2024/04/13 03:43:05;;;;;;;8.52;5.53;;;;;;;17.27;83.98;102149.97;5401822;25;95886;-73
2024/04/13 03:45:31;;;;;;;11.43;5.63;;;;;;;16.81;86.85;102150.94;5397012;26;95987;-73
2024/04/13 03:48:00;;;;;;;;;;;;;;;17.21;85.22;102160.03;5407242;25;97244;-73
2024/04/13 03:50:25;;;;;;;12.38;5.95;;;;;;;17.04;85.62;102150.94;5408332;25;94758;-73
2024/04/13 03:52:53;;;;;;;;;;;;;;;17.12;85.38;102153.28;5409847;25;94889;-73
2024/04/13 03:55:18;;;;;;;7.90;5.22;;;;;;;17.34;84.17;102153.25;5405698;25;99520;-74
2024/04/13 03:57:47;;;;;;;;;;;;;;;17.39;84.21;102153.97;5408484;25;97508;-74
2024/04/13 04:00:15;;;;;;;8.20;5.88;;;;;;;17.55;83.28;102152.38;5408352;25;95017;-73
2024/04/13 04:02:43;;;;;;;10.60;5.95;;;;;;;17.18;84.72;102154.84;5407697;25;96383;-73
2024/04/13 04:05:09;;;;;;;11.70;5.80;;;;;;;17.21;84.39;102150.22;5406599;26;96854;-73
2024/04/13 04:07:37;;;;;;;;;;;;;;;17.55;82.86;102139.00;5406492;25;96832;-74
2024/04/13 04:10:05;;;;;;;10.77;6.50;;;;;;;17.74;81.86;102142.66;5408015;25;94732;-73
2024/04/13 04:12:31;;;;;;;11.90;5.60;;;;;;;17.67;82.29;102138.50;5411739;25;94914;-73
2024/04/13 04:14:59;;;;;;;;;;;;;;;17.12;84.83;102146.16;5411750;25;97368;-73
2024/04/13 04:17:27;;;;;;;10.93;6.47;;;;;;;17.41;83.81;102146.72;5405305;25;95760;-74
2024/04/13 04:19:55;;;;;;;12.27;6.18;;;;;;;17.39;84.15;102149.47;5407863;25;94803;-74
2024/04/13 04:22:20;;;;;;;10.10;6.57;;;;;;;17.09;85.49;102150.72;5407939;25;94906;-73
2024/04/13 04:24:50;;;;;;;;;;;;;;;17.47;83.66;102146.47;5408396;25;97135;-73
2024/04/13 04:27:16;;;;;;;12.57;6.38;;;;;;;17.62;83.15;102139.66;5404991;25;95697;-73
2024/04/13 04:29:44;;;;;;;;;;;;;;;17.80;81.88;102133.50;5407790;25;94725;-73
2024/04/13 04:32:10;;;;;;;13.50;6.35;;;;;;;17.83;81.59;102134.25;5407998;25;95389;-74
2024/04/13 04:34:40;;;;;;;10.63;6.10;;;;;;;17.95;80.54;102143.53;5406894;26;99458;-74
2024/04/13 04:37:06;;;;;;;9.25;5.40;;;;;;;18.07;80.01;102145.66;5408002;25;99366;-73
2024/04/13 04:39:34;;;;;;;;;;;;;;;18.18;79.47;102138.00;5408473;25;94932;-73
2024/04/13 04:41:59;;;;;;;9.18;6.00;;;;;;;18.42;78.56;102141.41;5407522;25;94944;-74
2024/04/13 04:44:28;;;;;;;;;;;;;;;18.60;77.77;102145.06;5406931;25;97398;-74
2024/04/13 04:46:53;;;;;;;10.80;6.78;;;;;;;18.55;78.03;102155.97;5405786;25;96707;-73
2024/04/13 04:49:21;;;;;;;;;;;;;;;18.45;78.18;102143.91;5407503;25;94910;-73
2024/04/13 04:51:49;;;;;;;9.15;5.68;;;;;;;18.39;77.97;102143.31;5411922;25;94976;-73
2024/04/13 04:54:19;;;;;;;8.52;5.47;;;;;;;18.23;79.02;102140.50;5409090;26;99814;-74
2024/04/13 04:56:44;;;;;;;7.95;5.50;;;;;;;18.29;78.59;102146.44;5399379;25;95851;-74
2024/04/13 04:59:12;;;;;;;;;;;;;;;18.41;78.10;102144.13;5410748;25;94635;-73
2024/04/13 05:01:37;;;;;;;7.93;5.75;;;;;;;18.35;78.22;102147.97;5419351;25;94847;-73
2024/04/13 05:04:06;;;;;;;;;;;;;;;18.15;78.89;102146.19;5409943;25;96810;-73
2024/04/13 05:06:33;;;;;;;13.43;5.95;;;;;;;18.09;79.63;102156.31;5397906;25;99425;-72
2024/04/13 05:09:04;;;;;;;11.00;6.03;;;;;;;17.79;81.05;102154.03;5409732;25;94725;-74
2024/04/13 05:11:30;;;;;;;13.38;4.88;;;;;;;17.72;81.69;102152.53;5410319;26;95223;-72
2024/04/13 05:13:58;;;;;;;;;;;;;;;17.89;80.97;102147.34;5409603;26;99641;-73
2024/04/13 05:16:23;;;;;;;11.93;6.03;;;;;;;17.81;80.51;102156.63;5407555;25;99968;-74
2024/04/13 05:18:51;;;;;;;;;;;;;;;17.64;81.98;102154.69;5408370;26;94787;-73
2024/04/13 05:21:17;;;;;;;10.23;5.55;;;;;;;17.82;80.88;102156.56;5410001;25;94907;-73
2024/04/13 05:23:45;;;;;;;;;;;;;;;17.85;80.52;102158.25;5402543;25;96643;-73
2024/04/13 05:26:13;;;;;;;10.50;5.63;;;;;;;17.83;80.92;102155.66;5407750;25;96805;-74
2024/04/13 05:28:41;;;;;;;7.82;5.65;;;;;;;17.83;80.63;102157.44;5408390;25;95956;-72
2024/04/13 05:31:09;;;;;;;10.10;6.18;;;;;;;17.84;80.48;102151.16;5409189;26;94838;-73
2024/04/13 05:33:38;;;;;;;10.48;5.60;;;;;;;18.09;79.80;102157.16;5408301;26;97514;-73
2024/04/13 05:36:04;;;;;;;9.60;5.50;;;;;;;18.12;78.42;102149.00;5409347;25;100046;-73
2024/04/13 05:38:32;;;;;;;9.13;5.97;;;;;;;18.28;78.55;102149.19;5408477;25;94713;-73
2024/04/13 05:40:58;;;;;;;11.65;5.68;;;;;;;18.45;77.47;102156.44;5410077;25;94752;-74
2024/04/13 05:43:29;;;;;;;;;;;;;;;18.47;77.50;102149.19;5408371;26;96882;-73
2024/04/13 05:45:55;;;;;;;11.98;6.07;;;;;;;18.46;77.36;102151.00;5408875;25;99947;-73
2024/04/13 05:48:23;;;;;;;;;;;;;;;18.61;76.49;102158.38;5409309;25;95257;-74
2024/04/13 05:50:52;;;;;;;12.43;6.50;;;;;;;18.21;78.95;102156.63;5415768;25;94875;-73
2024/04/13 05:53:20;;;;;;;14.10;6.03;;;;;;;18.59;77.89;102157.56;5409347;25;97286;-73
2024/04/13 05:55:46;;;;;;;6.32;5.63;;;;;;;18.54;78.01;102161.38;5408574;25;97017;-73
2024/04/13 05:58:14;;;;;;;;;;;;;;;18.29;79.14;102158.94;5407967;25;94793;-73
2024/04/13 06:00:42;;;;;;;9.27;6.15;;;;;;;18.31;79.59;102146.38;5409867;25;94899;-73
2024/04/13 06:03:10;;;;;;;16.80;6.95;;;;;;;18.63;77.84;102156.50;5407822;25;100239;-73
2024/04/13 06:05:36;;;;;;;9.02;6.13;;;;;;;18.17;79.12;102149.69;5403890;25;99475;-73
2024/04/13 06:08:03;;;;;;;;;;;;;;;18.37;79.18;102140.75;5407854;25;95242;-73
2024/04/13 06:10:29;;;;;;;14.82;7.03;;;;;;;18.11;80.41;102146.41;5408720;25;94877;-73
2024/04/13 06:12:58;;;;;;;;;;;;;;;18.59;78.27;102152.22;5409401;25;96938;-73
2024/04/13 06:15:23;;;;;;;9.90;5.57;;;;;;;18.41;78.92;102144.13;5408245;25;97837;-72
2024/04/13 06:17:54;;;;;;;;;;;;;;;18.48;78.70;102150.94;5408953;25;95117;-74
2024/04/13 06:20:19;;;;;;;15.43;6.22;;;;;;;18.47;79.00;102159.91;5408714;25;94860;-71
2024/04/13 06:22:49;;;;;;;;;;;;;;;19.19;75.66;102157.38;5409378;25;97644;-73
2024/04/13 06:25:16;;;;;;;8.60;5.03;;;;;;;19.22;74.45;102152.75;5408569;25;99033;-73
2024/04/13 06:27:44;;;;;;;9.73;5.63;;;;;;;19.28;75.05;102171.22;5407603;25;94781;-74
2024/04/13 06:30:13;;;;;;;12.57;5.53;;;;;;;19.72;73.10;102162.75;5417388;25;94921;-73
2024/04/13 06:32:41;;;;;;;12.70;5.82;;;;;;;19.93;72.42;102168.84;5400977;25;96667;-73
2024/04/13 06:35:09;;;;;;;10.35;5.90;;;;;;;20.28;70.66;102170.53;5407608;26;97001;-73
2024/04/13 06:37:37;;;;;;;10.65;5.13;;;;;;;20.12;70.10;102164.25;5406285;25;94750;-74
2024/04/13 06:40:04;;;;;;;12.50;5.60;;;;;;;20.14;70.22;102155.16;5408236;25;96836;-73
2024/04/13 06:42:33;;;;;;;6.43;4.95;;;;;;;20.25;70.46;102158.13;5408059;26;95630;-74
2024/04/13 06:45:00;;;;;;;6.85;4.75;;;;;;;20.03;71.03;102133.38;5407843;25;100285;-73
2024/04/13 06:47:29;;;;;;;7.78;5.22;;;;;;;20.23;69.76;102127.81;5405947;25;95831;-73
2024/04/13 06:49:54;;;;;;;12.90;6.68;;;;;;;20.14;70.42;102131.03;5408595;25;94960;-75
2024/04/13 06:52:25;;;;;;;;;;;;;;;20.73;68.48;102143.03;5410768;25;97693;-76
2024/04/13 06:54:50;;;;;;;8.60;5.30;;;;;;;20.69;68.41;102126.19;5408744;25;97141;-74
2024/04/13 06:57:18;;;;;;;8.98;6.13;;;;;;;20.81;68.35;102129.13;5406370;25;94717;-75
2024/04/13 06:59:45;;;;;;;13.07;5.57;;;;;;;21.09;66.77;102114.03;5408419;25;94924;-72
2024/04/13 07:02:13;;;;;;;9.60;5.10;;;;;;;21.11;66.05;102121.16;5408318;25;97004;-73
2024/04/13 07:04:38;;;;;;;11.40;5.45;;;;;;;21.06;67.03;102127.69;5406280;25;99589;-72
2024/04/13 07:07:06;;;;;;;9.20;5.15;;;;;;;20.92;66.96;102127.59;5406750;25;94772;-73
2024/04/13 07:09:34;;;;;;;9.77;4.93;;;;;;;20.48;68.46;102129.22;5407780;25;94941;-74
2024/04/13 07:12:02;;;;;;;6.50;5.40;;;;;;;20.36;69.22;102121.81;5407294;25;97231;-73
2024/04/13 07:14:28;;;;;;;11.57;5.05;;;;;;;20.91;67.90;102122.31;5407289;25;96151;-73
2024/04/13 07:16:57;;;;;;;10.20;5.72;;;;;;;21.08;66.84;102117.69;5406144;25;95334;-75
2024/04/13 07:19:23;;;;;;;10.35;5.50;;;;;;;21.63;64.75;102110.91;5404889;25;94713;-73
2024/04/13 07:21:51;;;;;;;10.45;7.15;;;;;;;21.72;63.48;102108.53;5408272;25;95483;-74
2024/04/13 07:24:17;;;;;;;16.35;7.45;;;;;;;21.37;64.62;102101.72;5408507;25;97271;-75
2024/04/13 07:26:47;;;;;;;14.68;6.28;;;;;;;20.60;66.97;102107.94;5407386;25;95592;-74
2024/04/13 07:29:13;;;;;;;13.65;6.78;;;;;;;20.45;68.09;102105.22;5408739;25;94850;-73
2024/04/13 07:31:41;;;;;;;13.68;6.32;;;;;;;19.81;71.06;102108.66;5407549;25;94993;-73
2024/04/13 07:34:06;;;;;;;10.90;5.85;;;;;;;20.42;70.25;102116.09;5407390;25;98199;-74
2024/04/13 07:36:35;;;;;;;10.95;6.05;;;;;;;21.26;67.01;102110.41;5405646;25;95295;-74
2024/04/13 07:39:00;;;;;;;10.68;6.00;;;;;;;21.28;65.68;102107.63;5407989;26;94770;-73
2024/04/13 07:41:28;;;;;;;11.32;5.55;;;;;;;22.07;63.65;102097.44;5406759;25;94876;-75
2024/04/13 07:43:56;;;;;;;9.55;5.70;;;;;;;21.59;64.31;102091.41;5407229;25;95686;-75
2024/04/13 07:46:25;;;;;;;10.82;6.32;;;;;;;20.71;67.78;102088.50;5403601;25;94816;-74
2024/04/13 07:48:50;;;;;;;10.73;5.45;;;;;;;21.44;65.58;102092.31;5406844;25;94931;-73
2024/04/13 07:51:18;;;;;;;10.68;6.22;;;;;;;21.37;65.25;102085.59;5411811;25;99118;-73
2024/04/13 07:53:46;;;;;;;9.25;5.57;;;;;;;21.22;65.83;102103.47;5407294;26;95140;-74
2024/04/13 07:56:12;;;;;;;9.40;5.65;;;;;;;21.50;65.18;102085.72;5410835;25;95230;-76
2024/04/13 07:58:40;;;;;;;11.02;6.60;;;;;;;21.76;64.14;102088.56;5407994;25;95227;-76
2024/04/13 08:01:08;;;;;;;9.98;6.05;;;;;;;21.80;63.67;102089.22;5409077;25;96376;-77
2024/04/13 08:03:37;;;;;;;11.30;5.95;;;;;;;21.50;64.32;102097.34;5407632;25;96772;-76
2024/04/13 08:06:02;;;;;;;9.77;6.18;;;;;;;20.92;66.42;102106.09;5407477;25;94648;-76
2024/04/13 08:08:37;;;;;;;10.82;5.97;;;;;;;21.31;65.73;102102.06;5407181;25;95968;-76
2024/04/13 08:11:08;;;;;;;11.38;5.10;;;;;;;20.75;66.04;102097.25;5411606;25;96876;-76
2024/04/13 08:13:36;;;;;;;11.52;6.20;;;;;;;20.42;67.97;102094.63;5413018;25;97218;-75
2024/04/13 08:16:03;;;;;;;11.95;6.20;;;;;;;20.44;66.80;102103.47;5407360;25;94839;-76
2024/04/13 08:18:34;;;;;;;12.82;5.97;;;;;;;20.89;65.80;102105.38;5402393;25;95373;-76
2024/04/13 08:20:59;;;;;;;10.10;5.38;;;;;;;20.84;65.56;102097.59;5406909;25;97020;-77
2024/04/13 08:23:28;;;;;;;6.63;4.90;;;;;;;20.54;67.19;102108.28;5402104;26;95725;-76
2024/04/13 08:25:53;;;;;;;8.60;5.22;;;;;;;20.25;67.47;102108.97;5398028;26;94800;-75
2024/04/13 08:28:22;;;;;;;7.03;4.15;;;;;;;20.39;67.84;102103.75;5399319;25;95667;-76
2024/04/13 08:30:48;;;;;;;9.55;5.00;;;;;;;21.09;65.30;102097.91;5401548;25;99733;-76
2024/04/13 08:33:16;;;;;;;6.95;4.43;;;;;;;21.33;63.43;102095.63;5405185;25;98604;-75
2024/04/13 08:35:44;;;;;;;8.63;4.10;;;;;;;21.34;63.66;102097.38;5398396;25;94819;-78
2024/04/13 08:38:12;;;;;;;9.10;4.03;;;;;;;21.68;62.05;102090.84;5403897;25;95159;-77
2024/04/13 08:40:38;;;;;;;5.57;3.25;;;;;;;21.82;60.63;102082.78;5405402;26;96777;-76
2024/04/13 08:43:06;;;;;;;10.63;3.97;;;;;;;22.10;60.40;102087.38;5404134;25;95809;-77
2024/04/13 08:45:34;;;;;;;4.43;3.20;;;;;;;22.80;57.79;102093.66;5403247;26;94832;-77
2024/04/13 08:48:04;;;;;;;6.32;3.30;;;;;;;22.72;56.01;102092.38;5402906;25;94971;-78
2024/04/13 08:50:31;;;;;;;5.05;3.47;;;;;;;21.59;60.35;102101.31;5405332;25;98196;-76
2024/04/13 08:53:04;;;;;;;7.32;3.20;;;;;;;21.93;58.56;102095.56;5406416;25;98707;-78
2024/04/13 08:55:33;;;;;;;7.45;2.85;;;;;;;21.19;60.58;102105.50;5405882;25;94804;-78
2024/04/13 08:58:01;;;;;;;5.75;3.20;;;;;;;21.62;59.63;102101.97;5404326;25;94863;-75
2024/04/13 09:00:28;;;;;;;5.60;3.38;;;;;;;22.35;57.05;102101.97;5405423;25;97528;-75
2024/04/13 09:02:58;;;;;;;4.97;3.10;;;;;;;22.91;56.41;102090.22;5405427;25;100155;-75
2024/04/13 09:05:25;;;;;;;6.53;3.67;;;;;;;23.24;54.71;102104.16;5405332;25;94746;-76
2024/04/13 09:07:53;;;;;;;13.15;3.67;;;;;;;23.14;54.64;102084.19;5408394;25;95527;-76
2024/04/13 09:10:22;;;;;;;4.70;3.67;;;;;;;22.33;56.25;102082.34;5405163;25;96813;-79
2024/04/13 09:12:50;;;;;;;6.63;3.40;;;;;;;22.57;56.39;102086.19;5405494;25;95797;-76
2024/04/13 09:15:16;;;;;;;9.13;3.55;;;;;;;22.41;56.24;102080.03;5406136;25;95383;-76
2024/04/13 09:17:44;;;;;;;7.50;3.50;;;;;;;22.39;57.19;102076.56;5403991;25;95927;-76
2024/04/13 09:20:11;;;;;;;4.60;3.13;;;;;;;22.19;56.79;102072.44;5405007;26;98331;-76
2024/04/13 09:22:40;;;;;;;9.20;3.72;;;;;;;22.50;55.97;102074.06;5404728;25;99455;-77
2024/04/13 09:25:08;;;;;;;4.45;2.95;;;;;;;22.77;55.27;102066.06;5404737;26;94966;-76
2024/04/13 09:27:38;;;;;;;6.57;2.80;;;;;;;22.45;55.32;102058.19;5402287;25;94996;-77
2024/04/13 09:30:06;;;;;;;8.05;3.00;;;;;;;23.15;54.29;102050.88;5404856;25;99776;-77
2024/04/13 09:32:34;;;;;;;7.03;2.80;;;;;;;23.15;53.34;102058.09;5404715;25;96085;-77
2024/04/13 09:35:07;;;;;;;5.45;3.10;;;;;;;23.07;53.35;102053.22;5404754;26;94947;-76
2024/04/13 09:37:35;;;;;;;7.82;3.00;;;;;;;22.83;53.72;102062.94;5402973;26;95115;-75
2024/04/13 09:40:01;;;;;;;5.60;3.50;;;;;;;21.93;56.69;102057.03;5407917;25;95683;-75
2024/04/13 09:42:29;;;;;;;5.55;2.63;;;;;;;22.25;55.98;102035.22;5407904;25;99065;-75
2024/04/13 09:45:05;;;;;;;5.22;2.38;;;;;;;21.67;57.56;102043.38;5408055;25;95275;-76
2024/04/13 09:47:33;;;;;;;4.53;2.30;;;;;;;21.75;57.74;102037.53;5406424;26;95087;-76
2024/04/13 09:49:58;;;;;;;4.25;2.70;;;;;;;21.71;58.61;102034.19;5411340;25;95453;-76
2024/04/13 09:52:27;;;;;;;3.70;2.80;;;;;;;21.89;57.09;102032.16;5410045;25;97571;-77
2024/04/13 09:54:54;;;;;;;6.15;2.30;;;;;;;22.86;55.68;102023.16;5408361;25;95111;-76
2024/04/13 09:57:23;;;;;;;5.60;3.15;;;;;;;23.28;53.66;102023.94;5406546;25;95061;-76
2024/04/13 09:59:51;;;;;;;7.30;2.42;;;;;;;23.53;52.18;102031.22;5407659;25;97274;-76
2024/04/13 10:02:22;;;;;;;3.78;2.25;;;;;;;23.90;51.60;102040.28;5408157;25;97008;-76
2024/04/13 10:04:48;;;;;;;9.95;2.50;;;;;;;23.31;51.56;102027.28;5408587;25;94819;-76
2024/04/13 10:07:17;;;;;;;4.30;2.35;;;;;;;23.42;51.97;102032.81;5407835;25;94860;-77
2024/04/13 10:09:46;;;;;;;4.28;2.05;;;;;;;23.91;50.99;102034.78;5407691;25;99252;-76
2024/04/13 10:12:23;;;;;;;5.47;1.90;;;;;;;23.71;51.97;102027.22;5397346;25;95822;-77
2024/04/13 10:14:51;;;;;;;6.93;2.20;;;;;;;23.56;50.50;102022.94;5408044;25;94677;-77
2024/04/13 10:17:23;;;;;;;7.43;2.58;;;;;;;23.10;52.61;102020.69;5406881;25;98236;-78
2024/04/13 10:19:48;;;;;;;4.38;2.00;;;;;;;;;;5402124;25;96137;-76
2024/04/13 10:22:18;;;;;;;7.88;3.83;;;;;;;23.86;49.96;102025.28;5408163;25;95760;-74
2024/04/13 10:24:44;;;;;;;7.90;1.75;;;;;;;23.34;50.98;102023.50;5408742;26;95025;-76
2024/04/13 10:27:14;;;;;;;8.90;2.15;;;;;;;23.62;50.61;102017.09;5408065;25;95139;-78
2024/04/13 10:29:46;;;;;;;4.90;2.10;;;;;;;24.06;49.61;102008.53;5408711;25;97512;-75
2024/04/13 10:32:19;;;;;;;8.20;2.33;;;;;;;24.48;47.72;102015.38;5408398;25;99399;-74
2024/04/13 10:35:12;;;;;;;6.50;2.15;;;;;;;24.29;48.12;102007.75;5407243;26;94726;-74
2024/04/13 10:37:40;;;;;;;6.00;2.10;;;;;;;24.07;48.03;102002.16;5403424;25;96595;-74
2024/04/13 10:40:08;;;;;;;3.60;1.95;;;;;;;23.98;48.82;102008.22;5401037;26;98737;-74
2024/04/13 10:42:37;;;;;;;3.72;2.15;;;;;;;24.09;48.22;101995.66;5407592;25;99382;-75
2024/04/13 10:45:09;;;;;;;2.75;1.90;;;;;;;24.14;47.63;102004.31;5403604;25;95149;-74
2024/04/13 10:47:39;;;;;;;6.93;3.95;;;;;;;23.47;49.13;102004.66;5402386;25;95389;-73
2024/04/13 10:50:09;;;;;;;11.05;2.88;;;;;;;23.17;49.77;101994.16;5406496;25;98176;-74
2024/04/13 10:52:37;;;;;;;8.32;2.67;;;;;;;22.83;50.80;102000.97;5414426;25;97002;-74
2024/04/13 10:55:03;;;;;;;5.78;2.00;;;;;;;22.86;50.57;102000.75;5409188;25;94664;-74
2024/04/13 10:57:32;;;;;;;3.47;1.85;;;;;;;22.99;50.47;101996.25;5406386;25;95242;-76
2024/04/13 10:59:58;;;;;;;3.58;2.00;;;;;;;22.83;50.60;101996.44;5407568;25;98366;-78
2024/04/13 11:02:26;;;;;;;6.70;2.20;;;;;;;22.49;50.40;101992.41;5407732;25;99201;-78
2024/04/13 11:04:51;;;;;;;8.25;2.72;;;;;;;22.66;51.12;102005.59;5407495;25;95401;-74
2024/04/13 11:07:23;;;;;;;5.85;2.65;;;;;;;23.28;50.02;101997.84;5406492;25;95240;-73
2024/04/13 11:09:48;;;;;;;11.13;1.98;;;;;;;22.54;50.85;101990.25;5407331;25;96996;-73
2024/04/13 11:12:16;;;;;;;5.95;1.90;;;;;;;23.11;50.15;101990.03;5407280;25;98922;-72
2024/04/13 11:14:42;;;;;;;8.45;2.30;;;;;;;23.13;49.43;101987.22;5407677;25;95351;-73
2024/04/13 11:17:11;;;;;;;2.83;1.80;;;;;;;23.14;47.73;101975.47;5406044;25;95234;-74
2024/04/13 11:19:37;;;;;;;4.45;2.00;;;;;;;23.52;47.18;101981.78;5407105;26;97199;-75
2024/04/13 11:22:09;;;;;;;12.15;2.33;;;;;;;23.83;46.56;101986.75;5410486;25;97286;-75
2024/04/13 11:24:40;;;;;;;7.25;2.10;;;;;;;24.02;46.02;101978.22;5408836;25;94687;-74
2024/04/13 11:27:09;;;;;;;7.78;1.88;;;;;;;24.19;44.04;101974.28;5405877;25;97455;-73
2024/04/13 11:29:35;;;;;;;5.97;2.13;;;;;;;24.00;45.12;101963.94;5406602;25;96922;-73
2024/04/13 11:32:04;;;;;;;6.50;2.08;;;;;;;23.86;45.05;101972.16;5407156;25;95867;-74
2024/04/13 11:34:30;;;;;;;4.65;1.80;;;;;;;23.92;44.27;101966.31;5407837;26;94751;-75
2024/04/13 11:37:03;;;;;;;10.23;2.17;;;;;;;24.22;43.68;101964.13;5414315;25;95014;-74